createdAt,value
2023-03-15T00:00:21.708Z,1.40
2023-03-15T00:02:51.862Z,1.25
2023-03-15T00:05:22.858Z,1.55
2023-03-15T00:07:52.747Z,1.35
2023-03-15T00:10:22.783Z,1.30
2023-03-15T00:12:52.400Z,1.20
2023-03-15T00:15:22.264Z,1.50
2023-03-15T00:17:52.259Z,1.80
2023-03-15T00:20:22.091Z,1.55
2023-03-15T00:22:51.949Z,1.60
2023-03-15T00:25:21.573Z,1.75
2023-03-15T00:27:51.248Z,1.63
2023-03-15T00:30:21.084Z,1.60
2023-03-15T00:32:50.818Z,1.85
2023-03-15T00:35:21.861Z,1.42
2023-03-15T00:37:56.477Z,1.50
2023-03-15T00:40:27.026Z,1.42
2023-03-15T00:42:59.609Z,1.30
2023-03-15T00:45:29.642Z,1.42
2023-03-15T00:47:59.399Z,1.20
2023-03-15T00:50:29.265Z,1.50
2023-03-15T00:52:59.482Z,1.33
2023-03-15T00:55:31.300Z,1.70
2023-03-15T00:58:01.345Z,1.40
2023-03-15T01:00:31.353Z,1.50
2023-03-15T01:03:01.258Z,1.88
2023-03-15T01:05:32.451Z,1.40
2023-03-15T01:08:04.251Z,1.45
2023-03-15T01:10:37.203Z,1.60
2023-03-15T01:13:08.366Z,1.33
2023-03-15T01:15:38.546Z,1.30
2023-03-15T01:18:08.539Z,1.55
2023-03-15T01:20:38.455Z,1.33
2023-03-15T01:23:08.771Z,1.40
2023-03-15T01:25:38.626Z,1.35
2023-03-15T01:28:08.591Z,1.67
2023-03-15T01:30:38.645Z,1.60
2023-03-15T01:33:08.558Z,1.67
2023-03-15T01:35:38.819Z,1.55
2023-03-15T01:38:08.854Z,1.35
2023-03-15T01:40:43.606Z,1.50
2023-03-15T01:43:25.176Z,1.23
2023-03-15T01:45:59.974Z,1.50
2023-03-15T01:48:45.996Z,1.25
2023-03-15T01:51:33.821Z,1.45
2023-03-15T01:54:21.886Z,1.85
2023-03-15T01:57:17.236Z,1.30
2023-03-15T01:59:56.821Z,1.60
2023-03-15T02:02:27.629Z,1.30
2023-03-15T02:05:11.117Z,1.50
2023-03-15T02:07:51.068Z,1.70
2023-03-15T02:10:48.306Z,1.35
2023-03-15T02:13:23.924Z,1.48
2023-03-15T02:15:56.158Z,1.40
2023-03-15T02:18:36.991Z,1.33
2023-03-15T02:21:28.945Z,1.55
2023-03-15T02:24:26.530Z,1.52
2023-03-15T02:26:58.786Z,1.42
2023-03-15T02:29:32.140Z,1.85
2023-03-15T02:32:05.728Z,1.95
2023-03-15T02:34:35.558Z,1.30
2023-03-15T02:37:05.620Z,1.15
2023-03-15T02:39:35.601Z,1.60
2023-03-15T02:42:05.495Z,1.48
2023-03-15T02:44:38.918Z,1.40
2023-03-15T02:47:31.783Z,1.42
2023-03-15T02:50:01.743Z,1.30
2023-03-15T02:52:32.567Z,1.65
2023-03-15T02:55:04.871Z,1.55
2023-03-15T02:57:34.720Z,1.30
2023-03-15T03:00:15.462Z,1.20
2023-03-15T03:02:48.511Z,1.20
2023-03-15T03:05:19.103Z,1.40
2023-03-15T03:07:51.334Z,1.70
2023-03-15T03:12:55.668Z,1.40
2023-03-15T03:15:32.810Z,1.25
2023-03-15T03:18:02.851Z,1.25
2023-03-15T03:20:32.511Z,1.60
2023-03-15T03:23:07.296Z,1.50
2023-03-15T03:25:38.808Z,1.70
2023-03-15T03:28:10.018Z,1.50
2023-03-15T03:30:40.115Z,1.50
2023-03-15T03:33:10.043Z,1.70
2023-03-15T03:35:39.955Z,1.60
2023-03-15T03:38:13.083Z,1.40
2023-03-15T03:40:47.840Z,1.48
2023-03-15T03:43:18.679Z,1.42
2023-03-15T03:45:49.222Z,2.15
2023-03-15T03:48:20.077Z,1.67
2023-03-15T03:50:49.907Z,1.60
2023-03-15T03:53:20.038Z,1.27
2023-03-15T03:55:50.300Z,1.40
2023-03-15T03:58:23.557Z,1.27
2023-03-15T04:01:02.005Z,1.38
2023-03-15T04:03:34.754Z,1.40
2023-03-15T04:06:12.325Z,1.52
2023-03-15T04:08:45.791Z,1.50
2023-03-15T04:11:27.876Z,1.38
2023-03-15T04:14:02.130Z,1.50
2023-03-15T04:16:32.547Z,2.15
2023-03-15T04:19:09.224Z,1.58
2023-03-15T04:21:40.106Z,1.60
2023-03-15T04:24:42.549Z,1.50
2023-03-15T04:27:18.000Z,1.50
2023-03-15T04:32:39.508Z,1.58
2023-03-15T04:35:36.579Z,1.90
2023-03-15T04:38:28.711Z,1.73
2023-03-15T04:41:21.781Z,1.98
2023-03-15T04:44:10.723Z,1.52
2023-03-15T04:46:47.575Z,1.58
2023-03-15T04:49:36.566Z,1.50
2023-03-15T04:52:30.719Z,1.73
2023-03-15T04:55:19.967Z,1.48
2023-03-15T04:58:03.189Z,1.90
2023-03-15T05:00:56.147Z,1.50
2023-03-15T05:15:00.393Z,1.52
2023-03-15T05:17:50.576Z,1.50
2023-03-15T05:20:38.777Z,1.88
2023-03-15T05:23:28.296Z,1.67
2023-03-15T05:26:30.868Z,1.92
2023-03-15T05:29:26.364Z,1.48
2023-03-15T05:32:08.067Z,1.50
2023-03-15T05:38:16.059Z,1.67
2023-03-15T05:40:48.876Z,2.40
2023-03-15T05:43:40.785Z,1.92
2023-03-15T05:46:30.515Z,1.88
2023-03-15T05:49:23.046Z,1.92
2023-03-15T05:52:08.054Z,2.17
2023-03-15T06:27:05.955Z,1.90
2023-03-15T06:29:38.671Z,2.17
2023-03-15T06:32:09.918Z,2.20
2023-03-15T06:34:42.448Z,2.00
2023-03-15T06:37:28.837Z,2.10
2023-03-15T06:40:09.958Z,2.00
2023-03-15T06:42:42.749Z,2.10
2023-03-15T06:45:16.371Z,2.40
2023-03-15T06:47:47.980Z,1.85
2023-03-15T06:50:19.465Z,1.90
2023-03-15T06:52:50.695Z,1.80
2023-03-15T06:55:20.723Z,2.00
2023-03-15T06:57:51.505Z,2.13
2023-03-15T07:00:21.609Z,2.10
2023-03-15T07:02:51.692Z,1.90
2023-03-15T07:05:21.939Z,2.22
2023-03-15T07:07:51.795Z,2.00
2023-03-15T07:10:22.626Z,1.77
2023-03-15T07:12:52.389Z,2.47
2023-03-15T07:15:22.488Z,1.65
2023-03-15T07:17:52.278Z,1.88
2023-03-15T07:20:21.967Z,2.20
2023-03-15T07:22:51.811Z,2.20
2023-03-15T07:25:25.137Z,2.03
2023-03-15T07:27:55.529Z,1.90
2023-03-15T07:30:25.470Z,2.03
2023-03-15T07:32:55.602Z,2.25
2023-03-15T07:35:25.475Z,2.05
2023-03-15T07:37:55.254Z,1.77
2023-03-15T07:40:26.077Z,1.85
2023-03-15T07:42:55.850Z,1.85
2023-03-15T07:45:25.961Z,2.10
2023-03-15T07:47:56.706Z,1.70
2023-03-15T07:50:26.491Z,1.90
2023-03-15T07:52:56.467Z,1.70
2023-03-15T07:55:27.116Z,1.50
2023-03-15T07:57:56.927Z,1.63
2023-03-15T08:00:26.844Z,1.80
2023-03-15T08:02:58.148Z,1.70
2023-03-15T08:05:29.091Z,1.88
2023-03-15T08:07:59.246Z,1.80
2023-03-15T08:10:29.217Z,1.60
2023-03-15T08:12:59.125Z,1.70
2023-03-15T08:15:28.763Z,1.73
2023-03-15T08:18:01.051Z,2.17
2023-03-15T08:20:31.083Z,1.88
2023-03-15T08:23:01.026Z,1.83
2023-03-15T08:25:32.062Z,1.73
2023-03-15T08:28:03.361Z,2.03
2023-03-15T08:30:33.404Z,1.80
2023-03-15T08:33:03.096Z,2.00
2023-03-15T08:35:35.487Z,1.88
2023-03-15T08:38:05.514Z,1.63
2023-03-15T08:40:35.223Z,1.90
2023-03-15T08:43:05.040Z,2.20
2023-03-15T08:45:51.052Z,2.10
2023-03-15T08:48:25.549Z,1.75
2023-03-15T08:50:55.517Z,2.47
2023-03-15T08:53:25.106Z,2.13
2023-03-15T08:55:54.818Z,1.63
2023-03-15T08:58:25.817Z,2.08
2023-03-15T09:00:55.682Z,2.00
2023-03-15T09:03:25.685Z,1.70
2023-03-15T09:05:59.395Z,2.05
2023-03-15T09:08:29.501Z,2.00
2023-03-15T09:10:59.476Z,1.83
2023-03-15T09:13:30.001Z,1.67
2023-03-15T09:16:00.119Z,2.15
2023-03-15T09:18:29.683Z,2.20
2023-03-15T09:20:59.447Z,1.90
2023-03-15T09:23:30.288Z,1.80
2023-03-15T09:26:00.138Z,2.10
2023-03-15T09:28:30.103Z,1.90
2023-03-15T09:31:01.074Z,2.10
2023-03-15T09:33:30.875Z,1.75
2023-03-15T09:36:00.992Z,1.60
2023-03-15T09:38:31.042Z,1.67
2023-03-15T09:41:01.667Z,1.77
2023-03-15T09:43:59.131Z,2.13
2023-03-15T09:46:49.305Z,1.83
2023-03-15T09:49:53.157Z,2.03
2023-03-15T09:53:02.559Z,2.00
2023-03-15T09:55:32.420Z,1.77
2023-03-15T09:58:12.501Z,1.80
2023-03-15T10:00:55.181Z,2.17
2023-03-15T10:03:49.352Z,3.28
2023-03-15T10:06:23.961Z,2.63
2023-03-15T10:09:01.588Z,1.92
2023-03-15T10:11:58.640Z,2.58
2023-03-15T10:14:28.591Z,2.13
2023-03-15T10:16:58.235Z,2.40
2023-03-15T10:19:40.993Z,2.05
2023-03-15T10:22:25.716Z,1.80
2023-03-15T10:25:31.143Z,1.73
2023-03-15T10:28:08.231Z,2.30
2023-03-15T10:30:39.956Z,1.90
2023-03-15T10:33:31.697Z,1.88
2023-03-15T10:36:10.922Z,2.00
2023-03-15T10:38:43.027Z,2.80
2023-03-15T10:41:29.357Z,2.22
2023-03-15T10:44:06.505Z,2.17
2023-03-15T10:46:36.773Z,2.30
2023-03-15T10:49:18.899Z,2.25
2023-03-15T10:51:50.106Z,2.05
2023-03-15T10:54:23.492Z,2.15
2023-03-15T10:57:08.323Z,2.35
2023-03-15T11:02:22.261Z,2.08
2023-03-15T11:07:37.712Z,2.08
2023-03-15T11:10:09.237Z,2.17
2023-03-15T11:12:40.499Z,2.22
2023-03-15T11:15:16.702Z,1.63
2023-03-15T11:17:51.426Z,2.00
2023-03-15T11:20:40.795Z,1.85
2023-03-15T11:23:21.661Z,2.65
2023-03-15T11:25:51.651Z,2.30
2023-03-15T11:28:34.295Z,2.28
2023-03-15T11:31:06.800Z,2.10
2023-03-15T11:33:47.397Z,2.30
2023-03-15T11:36:24.697Z,2.15
2023-03-15T11:38:55.270Z,2.50
2023-03-15T11:41:46.604Z,1.83
2023-03-15T11:46:59.677Z,1.73
2023-03-15T11:49:46.221Z,1.80
2023-03-15T11:52:18.876Z,1.30
2023-03-15T11:54:49.156Z,1.00
2023-03-15T11:57:31.788Z,1.00
2023-03-15T12:00:23.156Z,1.25
2023-03-15T12:03:03.137Z,1.27
2023-03-15T12:06:15.434Z,1.10
2023-03-15T12:08:53.553Z,0.80
2023-03-15T12:11:23.340Z,0.70
2023-03-15T12:14:01.753Z,0.82
2023-03-15T12:16:42.875Z,0.80
2023-03-15T12:19:22.146Z,0.88
2023-03-15T12:21:54.881Z,0.73
2023-03-15T12:24:29.500Z,0.82
2023-03-15T12:27:23.829Z,0.77
2023-03-15T12:30:03.050Z,0.98
2023-03-15T12:32:45.135Z,0.63
2023-03-15T12:35:21.294Z,0.80
2023-03-15T12:37:54.200Z,0.70
2023-03-15T12:40:30.068Z,0.52
2023-03-15T12:43:03.722Z,0.60
2023-03-15T12:45:39.476Z,0.75
2023-03-15T12:48:14.993Z,0.80
2023-03-15T12:50:49.110Z,0.68
2023-03-15T12:53:24.186Z,1.00
2023-03-15T12:56:02.808Z,0.80
2023-03-15T12:58:40.139Z,0.65
2023-03-15T13:01:17.143Z,0.80
2023-03-15T13:03:47.520Z,0.68
2023-03-15T13:06:35.176Z,0.70
2023-03-15T13:09:26.798Z,0.70
2023-03-15T13:12:20.185Z,0.60
2023-03-15T13:15:24.043Z,0.60
2023-03-15T13:17:57.340Z,0.80
2023-03-15T13:20:37.356Z,0.60
2023-03-15T13:23:29.756Z,0.70
2023-03-15T13:26:20.375Z,0.63
2023-03-15T13:29:07.550Z,0.80
2023-03-15T13:31:38.685Z,0.50
2023-03-15T13:34:25.310Z,0.70
2023-03-15T13:37:01.332Z,0.57
2023-03-15T13:39:36.341Z,0.82
2023-03-15T13:44:37.228Z,0.52
2023-03-15T13:47:06.897Z,1.42
2023-03-15T13:49:38.155Z,0.70
2023-03-15T13:52:13.372Z,0.57
2023-03-15T13:54:45.071Z,0.50
2023-03-15T14:00:13.074Z,0.30
2023-03-15T14:02:48.494Z,0.43
2023-03-15T14:05:28.370Z,0.40
2023-03-15T14:08:05.875Z,0.30
2023-03-15T14:10:41.461Z,0.52
2023-03-15T14:13:27.976Z,0.40
2023-03-15T14:16:09.340Z,0.40
2023-03-15T14:18:43.554Z,0.52
2023-03-15T14:21:21.022Z,0.55
2023-03-15T14:23:51.452Z,0.40
2023-03-15T14:26:32.334Z,0.43
2023-03-15T14:29:09.595Z,0.50
2023-03-15T14:31:47.809Z,0.63
2023-03-15T14:34:37.806Z,0.55
2023-03-15T14:37:39.228Z,0.30
2023-03-15T14:40:25.494Z,0.57
2023-03-15T14:42:55.396Z,0.45
2023-03-15T14:45:25.237Z,0.52
2023-03-15T14:47:59.614Z,0.65
2023-03-15T14:50:34.754Z,0.43
2023-03-15T14:53:05.561Z,0.50
2023-03-15T14:55:37.861Z,0.65
2023-03-15T14:58:19.212Z,0.50
2023-03-15T15:00:54.845Z,0.40
2023-03-15T15:03:33.420Z,0.50
2023-03-15T15:06:04.362Z,0.40
2023-03-15T15:08:35.803Z,0.40
2023-03-15T15:11:06.230Z,0.52
2023-03-15T15:13:37.071Z,0.50
2023-03-15T15:16:07.957Z,0.40
2023-03-15T15:18:38.976Z,0.45
2023-03-15T15:21:33.722Z,0.50
2023-03-15T15:24:06.100Z,0.57
2023-03-15T15:26:37.403Z,0.52
2023-03-15T15:29:07.264Z,0.40
2023-03-15T15:31:36.925Z,0.60
2023-03-15T15:34:07.052Z,0.73
2023-03-15T15:36:40.545Z,0.40
2023-03-15T15:39:30.494Z,0.40
2023-03-15T15:42:01.283Z,0.40
2023-03-15T15:44:32.249Z,0.47
2023-03-15T15:47:02.341Z,0.60
2023-03-15T15:49:31.978Z,0.60
2023-03-15T15:52:01.861Z,0.73
2023-03-15T15:54:33.756Z,0.50
2023-03-15T15:57:04.210Z,0.80
2023-03-15T15:59:34.057Z,0.40
2023-03-15T16:02:03.922Z,0.73
2023-03-15T16:04:34.145Z,0.70
2023-03-15T16:07:05.301Z,0.50
2023-03-15T16:09:37.285Z,0.50
2023-03-15T16:14:44.767Z,0.50
2023-03-15T16:17:23.246Z,0.50
2023-03-15T16:19:54.430Z,0.60
2023-03-15T16:22:25.387Z,0.88
2023-03-15T16:24:58.782Z,0.60
2023-03-15T16:27:29.819Z,0.63
2023-03-15T16:29:59.808Z,0.70
2023-03-15T16:32:43.324Z,0.50
2023-03-15T16:35:16.574Z,0.47
2023-03-15T16:37:48.052Z,0.40
2023-03-15T16:40:26.566Z,0.30
2023-03-15T16:42:57.213Z,0.32
2023-03-15T16:45:28.495Z,0.57
2023-03-15T16:47:58.311Z,0.50
2023-03-15T16:50:28.418Z,0.52
2023-03-15T16:53:01.238Z,0.45
2023-03-15T16:55:35.805Z,0.50
2023-03-15T16:58:25.946Z,0.40
2023-03-15T17:00:55.751Z,0.55
2023-03-15T17:03:26.836Z,0.40
2023-03-15T17:05:59.016Z,0.40
2023-03-15T17:08:29.058Z,0.35
2023-03-15T17:10:58.967Z,0.50
2023-03-15T17:13:31.288Z,0.43
2023-03-15T17:16:01.409Z,1.23
2023-03-15T17:18:31.936Z,0.40
2023-03-15T17:21:01.880Z,0.50
2023-03-15T17:23:32.636Z,0.40
2023-03-15T17:26:02.429Z,0.50
2023-03-15T17:28:32.072Z,0.40
2023-03-15T17:31:20.186Z,0.38
2023-03-15T17:33:53.303Z,0.32
2023-03-15T17:36:26.920Z,0.60
2023-03-15T17:38:56.821Z,0.43
2023-03-15T17:41:30.483Z,0.43
2023-03-15T17:44:00.553Z,0.45
2023-03-15T17:46:35.016Z,0.47
2023-03-15T17:49:07.464Z,0.40
2023-03-15T17:51:38.789Z,0.40
2023-03-15T17:54:16.568Z,0.43
2023-03-15T17:56:46.679Z,0.35
2023-03-15T17:59:16.558Z,0.40
2023-03-15T18:01:49.787Z,0.52
2023-03-15T18:04:22.457Z,0.52
2023-03-15T18:06:52.297Z,0.57
2023-03-15T18:09:23.416Z,0.47
2023-03-15T18:11:53.522Z,0.50
2023-03-15T18:14:23.188Z,0.43
2023-03-15T18:16:53.098Z,0.50
2023-03-15T18:19:22.864Z,0.40
2023-03-15T18:21:52.493Z,0.50
2023-03-15T18:24:22.323Z,0.55
2023-03-15T18:26:53.957Z,0.50
2023-03-15T18:29:25.376Z,0.43
2023-03-15T18:31:55.066Z,0.45
2023-03-15T18:34:25.228Z,0.38
2023-03-15T18:36:54.880Z,0.38
2023-03-15T18:39:26.406Z,0.40
2023-03-15T18:41:56.418Z,0.50
2023-03-15T18:44:26.047Z,0.40
2023-03-15T18:46:55.825Z,0.30
2023-03-15T18:49:25.837Z,0.30
2023-03-15T18:51:57.483Z,0.40
2023-03-15T18:56:56.730Z,0.50
2023-03-15T18:59:27.102Z,0.70
2023-03-15T19:01:56.968Z,0.30
2023-03-15T19:04:26.788Z,0.32
2023-03-15T19:06:56.614Z,0.60
2023-03-15T19:09:28.676Z,0.52
2023-03-15T19:11:58.550Z,0.40
2023-03-15T19:14:28.156Z,0.40
2023-03-15T19:16:59.167Z,0.52
2023-03-15T19:19:29.257Z,0.52
2023-03-15T19:22:00.007Z,0.60
2023-03-15T19:24:30.038Z,0.50
2023-03-15T19:26:59.950Z,0.55
2023-03-15T19:29:29.805Z,0.50
2023-03-15T19:32:00.041Z,0.45
2023-03-15T19:34:29.974Z,0.40
2023-03-15T19:37:00.034Z,0.40
2023-03-15T19:39:29.879Z,0.40
2023-03-15T19:41:59.717Z,0.50
2023-03-15T19:44:31.806Z,0.40
2023-03-15T19:47:01.698Z,0.30
2023-03-15T19:49:31.664Z,0.38
2023-03-15T19:52:01.698Z,0.30
2023-03-15T19:54:35.036Z,0.40
2023-03-15T19:57:04.878Z,0.30
2023-03-15T19:59:40.844Z,0.60
2023-03-15T20:02:14.352Z,0.30
2023-03-15T20:04:44.306Z,0.47
2023-03-15T20:07:14.117Z,0.50
2023-03-15T20:09:44.011Z,0.50
2023-03-15T20:12:14.645Z,0.60
2023-03-15T20:14:44.504Z,0.50
2023-03-15T20:17:14.136Z,0.90
2023-03-15T20:19:44.007Z,0.60
2023-03-15T20:22:13.809Z,0.52
2023-03-15T20:24:45.408Z,0.63
2023-03-15T20:27:15.254Z,0.63
2023-03-15T20:29:45.354Z,0.85
2023-03-15T20:32:15.139Z,0.90
2023-03-15T20:34:44.979Z,0.95
2023-03-15T20:37:15.825Z,1.30
2023-03-15T20:39:45.634Z,0.88
2023-03-15T20:42:15.225Z,1.20
2023-03-15T20:44:46.524Z,1.08
2023-03-15T20:47:17.160Z,0.80
2023-03-15T20:49:47.139Z,0.60
2023-03-15T20:52:16.969Z,1.00
2023-03-15T20:54:46.863Z,0.75
2023-03-15T20:57:16.754Z,1.30
2023-03-15T20:59:47.787Z,1.50
2023-03-15T21:02:18.170Z,1.00
2023-03-15T21:04:48.066Z,1.10
2023-03-15T21:07:17.894Z,0.98
2023-03-15T21:09:47.961Z,0.65
2023-03-15T21:12:17.776Z,0.77
2023-03-15T21:14:47.592Z,0.70
2023-03-15T21:17:17.196Z,0.73
2023-03-15T21:19:46.808Z,1.00
2023-03-15T21:22:16.785Z,0.70
2023-03-15T21:24:55.516Z,0.90
2023-03-15T21:27:27.271Z,0.70
2023-03-15T21:29:57.292Z,0.93
2023-03-15T21:32:27.480Z,0.70
2023-03-15T21:34:57.384Z,0.70
2023-03-15T21:37:27.396Z,0.80
2023-03-15T21:39:57.343Z,0.88
2023-03-15T21:42:27.689Z,0.73
2023-03-15T21:44:57.774Z,0.80
2023-03-15T21:47:27.432Z,0.80
2023-03-15T21:49:57.115Z,0.82
2023-03-15T21:52:28.372Z,0.80
2023-03-15T21:54:58.134Z,0.80
2023-03-15T21:57:28.308Z,0.80
2023-03-15T21:59:58.206Z,0.80
2023-03-15T22:02:28.086Z,0.82
2023-03-15T22:04:58.126Z,0.70
2023-03-15T22:07:28.417Z,0.77
2023-03-15T22:09:58.217Z,0.73
2023-03-15T22:12:28.061Z,1.02
2023-03-15T22:15:05.263Z,1.00
2023-03-15T22:17:36.988Z,0.60
2023-03-15T22:20:17.658Z,0.95
2023-03-15T22:22:50.321Z,0.60
2023-03-15T22:25:20.444Z,1.08
2023-03-15T22:27:50.776Z,0.73
2023-03-15T22:30:20.573Z,1.05
2023-03-15T22:32:50.298Z,0.90
2023-03-15T22:35:20.482Z,0.90
2023-03-15T22:37:50.662Z,1.02
2023-03-15T22:40:20.673Z,0.80
2023-03-15T22:42:52.522Z,1.40
2023-03-15T22:45:22.998Z,0.82
2023-03-15T22:47:53.190Z,0.88
2023-03-15T22:50:23.265Z,1.00
2023-03-15T22:52:53.446Z,0.82
2023-03-15T22:55:24.125Z,1.08
2023-03-15T22:57:55.101Z,0.98
2023-03-15T23:00:26.024Z,1.08
2023-03-15T23:02:56.063Z,0.88
2023-03-15T23:05:25.898Z,0.63
2023-03-15T23:07:55.558Z,0.80
2023-03-15T23:10:26.453Z,1.15
2023-03-15T23:12:56.875Z,0.90
2023-03-15T23:15:27.615Z,0.93
2023-03-15T23:17:58.274Z,1.05
2023-03-15T23:20:28.439Z,1.10
2023-03-15T23:23:01.670Z,0.90
2023-03-15T23:25:31.508Z,1.05
2023-03-15T23:28:01.535Z,0.98
2023-03-15T23:30:35.899Z,0.93
2023-03-15T23:33:06.492Z,0.90
2023-03-15T23:35:36.407Z,0.80
2023-03-15T23:38:06.260Z,0.93
2023-03-15T23:40:36.824Z,1.00
2023-03-15T23:43:07.116Z,1.02
2023-03-15T23:45:37.058Z,1.15
2023-03-15T23:48:07.070Z,1.13
2023-03-15T23:50:38.571Z,1.02
2023-03-15T23:53:08.564Z,0.90
2023-03-15T23:55:38.330Z,1.00
2023-03-15T23:58:08.532Z,1.13
